N6229P KSNA-KHND
Flight info
| Callsign | N6229P |
|---|---|
| Flight time | 1h 26m |
| Altitude | VFR |
| Route | |
| Aircraft | PA28/L-VGD/C |
Departure
| Time | 2026-04-21 03:00 |
|---|---|
| Airport | John Wayne Orange County International Airport (KSNA) |
Arrival
| Time | 2026-04-21 04:26 |
|---|---|
| Airport | Henderson Executive Airport (KHND) |
| Time | Latitude | Longitude | Altitude | Speed | Heading |
|---|---|---|---|---|---|
| 2026-04-21 02:51 | 33.67111 | -117.86786 | 51 ft | 0 kts | 209° |
| 2026-04-21 02:54 | 33.67101 | -117.86799 | 52 ft | 4 kts | 282° |
| 2026-04-21 02:55 | 33.67123 | -117.86845 | 52 ft | 3 kts | 300° |
| 2026-04-21 02:55 | 33.67127 | -117.86853 | 52 ft | 4 kts | 299° |
| 2026-04-21 02:55 | 33.67153 | -117.86854 | 51 ft | 4 kts | 31° |
| 2026-04-21 02:55 | 33.67189 | -117.86829 | 51 ft | 7 kts | 27° |
| 2026-04-21 02:56 | 33.67258 | -117.86784 | 51 ft | 14 kts | 27° |
| 2026-04-21 02:56 | 33.67343 | -117.86693 | 50 ft | 7 kts | 32° |
| 2026-04-21 02:56 | 33.67391 | -117.86661 | 50 ft | 7 kts | 28° |
| 2026-04-21 02:57 | 33.67420 | -117.86644 | 50 ft | 6 kts | 28° |
| 2026-04-21 02:57 | 33.67498 | -117.86594 | 50 ft | 17 kts | 27° |
| 2026-04-21 02:57 | 33.67613 | -117.86521 | 49 ft | 16 kts | 27° |
| 2026-04-21 02:57 | 33.67688 | -117.86473 | 49 ft | 9 kts | 26° |
| 2026-04-21 02:58 | 33.67754 | -117.86432 | 49 ft | 14 kts | 28° |
| 2026-04-21 02:58 | 33.67859 | -117.86366 | 49 ft | 17 kts | 28° |
| 2026-04-21 02:58 | 33.67951 | -117.86307 | 49 ft | 13 kts | 27° |
| 2026-04-21 02:58 | 33.68029 | -117.86269 | 49 ft | 11 kts | 351° |
| 2026-04-21 02:59 | 33.68067 | -117.86310 | 49 ft | 4 kts | 297° |
| 2026-04-21 02:59 | 33.68085 | -117.86361 | 49 ft | 13 kts | 271° |
| 2026-04-21 02:59 | 33.67956 | -117.86455 | 49 ft | 55 kts | 208° |
| 2026-04-21 02:59 | 33.67509 | -117.86725 | 192 ft | 76 kts | 206° |
| 2026-04-21 03:00 | 33.67037 | -117.87027 | 390 ft | 79 kts | 205° |
| 2026-04-21 03:00 | 33.66499 | -117.87212 | 589 ft | 81 kts | 188° |
| 2026-04-21 03:00 | 33.65955 | -117.87004 | 781 ft | 92 kts | 144° |
| 2026-04-21 03:00 | 33.65617 | -117.86348 | 1077 ft | 97 kts | 98° |
| 2026-04-21 03:01 | 33.65547 | -117.85510 | 1363 ft | 104 kts | 96° |
| 2026-04-21 03:01 | 33.65488 | -117.84659 | 1731 ft | 101 kts | 94° |
| 2026-04-21 03:01 | 33.65448 | -117.83808 | 2068 ft | 102 kts | 90° |
| 2026-04-21 03:01 | 33.65582 | -117.82979 | 2380 ft | 104 kts | 68° |
| 2026-04-21 03:02 | 33.66009 | -117.82293 | 2706 ft | 105 kts | 38° |
| 2026-04-21 03:02 | 33.66595 | -117.81767 | 3040 ft | 105 kts | 35° |
| 2026-04-21 03:02 | 33.67121 | -117.81152 | 3318 ft | 110 kts | 62° |
| 2026-04-21 03:02 | 33.67365 | -117.80286 | 3630 ft | 108 kts | 62° |
| 2026-04-21 03:03 | 33.67776 | -117.79489 | 3652 ft | 122 kts | 58° |
| 2026-04-21 03:03 | 33.68246 | -117.78615 | 3494 ft | 124 kts | 57° |
| 2026-04-21 03:03 | 33.68939 | -117.78009 | 3391 ft | 120 kts | 30° |
| 2026-04-21 03:03 | 33.69717 | -117.77526 | 3160 ft | 127 kts | 23° |
| 2026-04-21 03:04 | 33.70517 | -117.77120 | 3091 ft | 121 kts | 23° |
| 2026-04-21 03:04 | 33.71282 | -117.76733 | 3025 ft | 119 kts | 23° |
| 2026-04-21 03:04 | 33.72006 | -117.76326 | 3024 ft | 114 kts | 27° |
| 2026-04-21 03:04 | 33.72726 | -117.75925 | 2954 ft | 116 kts | 22° |
| 2026-04-21 03:05 | 33.73501 | -117.75538 | 2856 ft | 118 kts | 26° |
| 2026-04-21 03:05 | 33.74205 | -117.75071 | 2880 ft | 115 kts | 32° |
| 2026-04-21 03:05 | 33.74862 | -117.74537 | 2993 ft | 111 kts | 37° |
| 2026-04-21 03:05 | 33.75459 | -117.73936 | 2919 ft | 120 kts | 44° |
| 2026-04-21 03:06 | 33.76035 | -117.73244 | 3139 ft | 109 kts | 47° |
| 2026-04-21 03:06 | 33.76528 | -117.72601 | 3465 ft | 108 kts | 49° |
| 2026-04-21 03:06 | 33.77029 | -117.71885 | 3764 ft | 110 kts | 52° |
| 2026-04-21 03:06 | 33.77492 | -117.71172 | 4075 ft | 112 kts | 53° |
| 2026-04-21 03:07 | 33.77975 | -117.70421 | 4360 ft | 111 kts | 54° |
| 2026-04-21 03:07 | 33.78447 | -117.69700 | 4665 ft | 112 kts | 52° |
| 2026-04-21 03:07 | 33.78962 | -117.68976 | 4939 ft | 113 kts | 49° |
| 2026-04-21 03:07 | 33.79503 | -117.68301 | 5226 ft | 114 kts | 45° |
| 2026-04-21 03:08 | 33.80090 | -117.67639 | 5476 ft | 115 kts | 43° |
| 2026-04-21 03:08 | 33.80691 | -117.67017 | 5746 ft | 115 kts | 41° |
| 2026-04-21 03:08 | 33.81324 | -117.66401 | 5988 ft | 117 kts | 39° |
| 2026-04-21 03:08 | 33.81960 | -117.65797 | 6259 ft | 118 kts | 39° |
| 2026-04-21 03:09 | 33.82611 | -117.65183 | 6475 ft | 119 kts | 40° |
| 2026-04-21 03:09 | 33.83252 | -117.64560 | 6721 ft | 118 kts | 41° |
| 2026-04-21 03:09 | 33.83885 | -117.63903 | 6926 ft | 121 kts | 44° |
| 2026-04-21 03:09 | 33.84465 | -117.63261 | 7207 ft | 112 kts | 45° |
| 2026-04-21 03:10 | 33.85047 | -117.62573 | 7299 ft | 118 kts | 46° |
| 2026-04-21 03:10 | 33.85576 | -117.61862 | 7628 ft | 112 kts | 47° |
| 2026-04-21 03:10 | 33.86137 | -117.61131 | 7677 ft | 127 kts | 47° |
| 2026-04-21 03:10 | 33.86780 | -117.60302 | 7624 ft | 144 kts | 47° |
| 2026-04-21 03:11 | 33.87518 | -117.59373 | 7438 ft | 163 kts | 45° |
| 2026-04-21 03:11 | 33.88245 | -117.58514 | 7769 ft | 144 kts | 43° |
| 2026-04-21 03:11 | 33.89055 | -117.57619 | 7528 ft | 164 kts | 41° |
| 2026-04-21 03:11 | 33.89920 | -117.56714 | 7474 ft | 167 kts | 40° |
| 2026-04-21 03:12 | 33.90803 | -117.55822 | 7334 ft | 159 kts | 39° |
| 2026-04-21 03:12 | 33.91566 | -117.55055 | 7236 ft | 127 kts | 40° |
| 2026-04-21 03:12 | 33.92226 | -117.54359 | 6862 ft | 137 kts | 41° |
| 2026-04-21 03:12 | 33.92905 | -117.53614 | 6950 ft | 130 kts | 42° |
| 2026-04-21 03:13 | 33.93577 | -117.52913 | 7226 ft | 116 kts | 38° |
| 2026-04-21 03:13 | 33.94181 | -117.52325 | 7397 ft | 119 kts | 37° |
| 2026-04-21 03:13 | 33.94872 | -117.51693 | 7488 ft | 120 kts | 36° |
| 2026-04-21 03:13 | 33.95523 | -117.51097 | 7542 ft | 123 kts | 38° |
| 2026-04-21 03:14 | 33.96188 | -117.50413 | 7582 ft | 122 kts | 42° |
| 2026-04-21 03:14 | 33.96772 | -117.49718 | 7657 ft | 122 kts | 46° |
| 2026-04-21 03:14 | 33.97364 | -117.48933 | 7676 ft | 124 kts | 49° |
| 2026-04-21 03:14 | 33.97903 | -117.48154 | 7760 ft | 122 kts | 51° |
| 2026-04-21 03:15 | 33.98446 | -117.47344 | 7746 ft | 125 kts | 51° |
| 2026-04-21 03:15 | 33.98986 | -117.46540 | 7772 ft | 123 kts | 51° |
| 2026-04-21 03:15 | 33.99544 | -117.45746 | 7765 ft | 125 kts | 49° |
| 2026-04-21 03:15 | 34.00124 | -117.44979 | 7791 ft | 123 kts | 46° |
| 2026-04-21 03:16 | 34.00735 | -117.44241 | 7780 ft | 125 kts | 44° |
| 2026-04-21 03:16 | 34.01368 | -117.43542 | 7803 ft | 125 kts | 41° |
| 2026-04-21 03:16 | 34.02028 | -117.42864 | 7771 ft | 126 kts | 40° |
| 2026-04-21 03:16 | 34.02712 | -117.42195 | 7846 ft | 123 kts | 39° |
| 2026-04-21 03:17 | 34.03380 | -117.41559 | 7878 ft | 125 kts | 38° |
| 2026-04-21 03:17 | 34.04071 | -117.40896 | 7918 ft | 125 kts | 39° |
| 2026-04-21 03:17 | 34.04738 | -117.40234 | 7969 ft | 125 kts | 40° |
| 2026-04-21 03:17 | 34.05403 | -117.39535 | 7994 ft | 126 kts | 43° |
| 2026-04-21 03:18 | 34.06042 | -117.38826 | 8051 ft | 125 kts | 43° |
| 2026-04-21 03:18 | 34.06713 | -117.38135 | 8063 ft | 127 kts | 43° |
| 2026-04-21 03:18 | 34.07342 | -117.37397 | 8078 ft | 126 kts | 47° |
| 2026-04-21 03:18 | 34.07935 | -117.36625 | 8065 ft | 124 kts | 49° |
| 2026-04-21 03:19 | 34.08499 | -117.35859 | 8067 ft | 121 kts | 50° |
| 2026-04-21 03:19 | 34.09051 | -117.35112 | 8070 ft | 118 kts | 49° |
| 2026-04-21 03:19 | 34.09605 | -117.34391 | 8073 ft | 116 kts | 47° |
| 2026-04-21 03:19 | 34.10165 | -117.33701 | 8081 ft | 114 kts | 46° |
| 2026-04-21 03:20 | 34.10736 | -117.33039 | 8081 ft | 113 kts | 44° |
| 2026-04-21 03:20 | 34.11357 | -117.32370 | 8115 ft | 126 kts | 41° |
| 2026-04-21 03:20 | 34.12059 | -117.31652 | 8152 ft | 137 kts | 41° |
| 2026-04-21 03:20 | 34.12803 | -117.30887 | 8239 ft | 140 kts | 41° |
| 2026-04-21 03:21 | 34.13485 | -117.30172 | 8616 ft | 120 kts | 42° |
| 2026-04-21 03:21 | 34.14154 | -117.29465 | 8605 ft | 137 kts | 43° |
| 2026-04-21 03:21 | 34.14811 | -117.28743 | 8950 ft | 119 kts | 44° |
| 2026-04-21 03:21 | 34.15444 | -117.28029 | 8973 ft | 130 kts | 45° |
| 2026-04-21 03:22 | 34.16105 | -117.27247 | 9052 ft | 130 kts | 46° |
| 2026-04-21 03:22 | 34.16681 | -117.26556 | 9395 ft | 116 kts | 46° |
| 2026-04-21 03:22 | 34.17306 | -117.25808 | 9437 ft | 123 kts | 47° |
| 2026-04-21 03:22 | 34.17849 | -117.25167 | 9765 ft | 111 kts | 46° |
| 2026-04-21 03:23 | 34.18468 | -117.24447 | 9823 ft | 115 kts | 46° |
| 2026-04-21 03:23 | 34.18980 | -117.23869 | 9878 ft | 128 kts | 45° |
| 2026-04-21 03:23 | 34.19606 | -117.23124 | 10287 ft | 94 kts | 47° |
| 2026-04-21 03:23 | 34.20101 | -117.22570 | 10417 ft | 101 kts | 43° |
| 2026-04-21 03:24 | 34.20387 | -117.22296 | 10746 ft | 74 kts | 36° |
| 2026-04-21 03:24 | 34.20941 | -117.21835 | 10780 ft | 87 kts | 39° |
| 2026-04-21 03:24 | 34.21428 | -117.21399 | 10787 ft | 109 kts | 39° |
| 2026-04-21 03:24 | 34.22053 | -117.20814 | 10905 ft | 113 kts | 40° |
| 2026-04-21 03:25 | 34.22671 | -117.20220 | 11016 ft | 119 kts | 41° |
| 2026-04-21 03:25 | 34.23335 | -117.19553 | 11043 ft | 130 kts | 45° |
| 2026-04-21 03:25 | 34.24220 | -117.18453 | 11045 ft | 141 kts | 52° |
| 2026-04-21 03:25 | 34.24642 | -117.17842 | 11050 ft | 144 kts | 55° |
| 2026-04-21 03:26 | 34.25264 | -117.16866 | 11057 ft | 149 kts | 56° |
| 2026-04-21 03:26 | 34.25899 | -117.15869 | 11062 ft | 150 kts | 55° |
| 2026-04-21 03:26 | 34.26563 | -117.14882 | 11074 ft | 152 kts | 53° |
| 2026-04-21 03:26 | 34.27272 | -117.13934 | 11089 ft | 153 kts | 49° |
| 2026-04-21 03:27 | 34.28039 | -117.13031 | 11112 ft | 155 kts | 45° |
| 2026-04-21 03:27 | 34.28846 | -117.12187 | 11124 ft | 152 kts | 42° |
| 2026-04-21 03:27 | 34.29664 | -117.11390 | 11124 ft | 149 kts | 40° |
| 2026-04-21 03:27 | 34.30477 | -117.10612 | 11131 ft | 149 kts | 41° |
| 2026-04-21 03:28 | 34.31281 | -117.09828 | 11124 ft | 148 kts | 42° |
| 2026-04-21 03:28 | 34.32067 | -117.09024 | 11126 ft | 148 kts | 44° |
| 2026-04-21 03:28 | 34.32832 | -117.08195 | 11124 ft | 148 kts | 46° |
| 2026-04-21 03:28 | 34.33584 | -117.07326 | 11128 ft | 150 kts | 47° |
| 2026-04-21 03:29 | 34.34324 | -117.06422 | 11133 ft | 152 kts | 49° |
| 2026-04-21 03:29 | 34.35057 | -117.05503 | 11143 ft | 152 kts | 49° |
| 2026-04-21 03:29 | 34.35787 | -117.04576 | 11154 ft | 152 kts | 49° |
| 2026-04-21 03:29 | 34.36525 | -117.03650 | 11166 ft | 153 kts | 49° |
| 2026-04-21 03:30 | 34.37275 | -117.02738 | 11178 ft | 153 kts | 47° |
| 2026-04-21 03:30 | 34.38036 | -117.01849 | 11190 ft | 151 kts | 46° |
| 2026-04-21 03:30 | 34.38806 | -117.00983 | 11198 ft | 151 kts | 45° |
| 2026-04-21 03:30 | 34.39576 | -117.00137 | 11211 ft | 152 kts | 45° |
| 2026-04-21 03:31 | 34.40362 | -116.99277 | 11221 ft | 152 kts | 45° |
| 2026-04-21 03:31 | 34.41147 | -116.98413 | 11229 ft | 153 kts | 45° |
| 2026-04-21 03:31 | 34.41928 | -116.97545 | 11240 ft | 152 kts | 45° |
| 2026-04-21 03:31 | 34.42705 | -116.96670 | 11248 ft | 153 kts | 46° |
| 2026-04-21 03:32 | 34.43486 | -116.95775 | 11261 ft | 152 kts | 46° |
| 2026-04-21 03:32 | 34.44250 | -116.94885 | 11271 ft | 152 kts | 47° |
| 2026-04-21 03:32 | 34.45000 | -116.94001 | 11281 ft | 152 kts | 47° |
| 2026-04-21 03:32 | 34.45757 | -116.93102 | 11291 ft | 152 kts | 47° |
| 2026-04-21 03:33 | 34.46514 | -116.92204 | 11301 ft | 152 kts | 47° |
| 2026-04-21 03:33 | 34.47274 | -116.91309 | 11312 ft | 152 kts | 47° |
| 2026-04-21 03:33 | 34.48037 | -116.90420 | 11322 ft | 152 kts | 47° |
| 2026-04-21 03:33 | 34.48804 | -116.89535 | 11332 ft | 152 kts | 46° |
| 2026-04-21 03:34 | 34.49575 | -116.88654 | 11341 ft | 152 kts | 46° |
| 2026-04-21 03:34 | 34.50347 | -116.87775 | 11348 ft | 152 kts | 46° |
| 2026-04-21 03:34 | 34.51119 | -116.86896 | 11358 ft | 152 kts | 46° |
| 2026-04-21 03:34 | 34.51890 | -116.86016 | 11370 ft | 152 kts | 46° |
| 2026-04-21 03:35 | 34.52659 | -116.85133 | 11380 ft | 152 kts | 46° |
| 2026-04-21 03:35 | 34.53425 | -116.84248 | 11390 ft | 152 kts | 47° |
| 2026-04-21 03:35 | 34.54190 | -116.83359 | 11399 ft | 152 kts | 47° |
| 2026-04-21 03:35 | 34.54954 | -116.82470 | 11409 ft | 152 kts | 47° |
| 2026-04-21 03:36 | 34.55719 | -116.81577 | 11419 ft | 152 kts | 47° |
| 2026-04-21 03:36 | 34.56483 | -116.80686 | 11428 ft | 152 kts | 47° |
| 2026-04-21 03:36 | 34.57248 | -116.79796 | 11439 ft | 152 kts | 47° |
| 2026-04-21 03:36 | 34.58015 | -116.78908 | 11449 ft | 152 kts | 47° |
| 2026-04-21 03:37 | 34.58781 | -116.78021 | 11458 ft | 152 kts | 47° |
| 2026-04-21 03:37 | 34.59552 | -116.77134 | 11465 ft | 153 kts | 47° |
| 2026-04-21 03:37 | 34.60319 | -116.76246 | 11480 ft | 152 kts | 47° |
| 2026-04-21 03:37 | 34.61085 | -116.75358 | 11487 ft | 152 kts | 47° |
| 2026-04-21 03:38 | 34.61850 | -116.74468 | 11495 ft | 152 kts | 47° |
| 2026-04-21 03:38 | 34.62616 | -116.73579 | 11504 ft | 152 kts | 47° |
| 2026-04-21 03:38 | 34.63379 | -116.72691 | 11513 ft | 152 kts | 47° |
| 2026-04-21 03:38 | 34.64143 | -116.71803 | 11522 ft | 152 kts | 47° |
| 2026-04-21 03:39 | 34.64907 | -116.70917 | 11530 ft | 152 kts | 47° |
| 2026-04-21 03:39 | 34.65670 | -116.70031 | 11538 ft | 152 kts | 47° |
| 2026-04-21 03:39 | 34.66432 | -116.69149 | 11546 ft | 151 kts | 47° |
| 2026-04-21 03:39 | 34.67191 | -116.68268 | 11553 ft | 151 kts | 47° |
| 2026-04-21 03:40 | 34.67952 | -116.67384 | 11561 ft | 152 kts | 47° |
| 2026-04-21 03:40 | 34.68715 | -116.66501 | 11568 ft | 151 kts | 47° |
| 2026-04-21 03:40 | 34.69474 | -116.65618 | 11575 ft | 151 kts | 47° |
| 2026-04-21 03:40 | 34.70234 | -116.64732 | 11582 ft | 151 kts | 47° |
| 2026-04-21 03:41 | 34.70980 | -116.63860 | 11588 ft | 151 kts | 47° |
| 2026-04-21 03:41 | 34.71739 | -116.62974 | 11595 ft | 151 kts | 47° |
| 2026-04-21 03:41 | 34.72497 | -116.62091 | 11602 ft | 151 kts | 47° |
| 2026-04-21 03:41 | 34.73256 | -116.61207 | 11608 ft | 151 kts | 47° |
| 2026-04-21 03:42 | 34.74015 | -116.60323 | 11611 ft | 151 kts | 47° |
| 2026-04-21 03:42 | 34.74775 | -116.59440 | 11615 ft | 151 kts | 47° |
| 2026-04-21 03:42 | 34.75532 | -116.58558 | 11629 ft | 150 kts | 47° |
| 2026-04-21 03:42 | 34.76286 | -116.57674 | 11637 ft | 151 kts | 47° |
| 2026-04-21 03:43 | 34.76981 | -116.56861 | 11638 ft | 151 kts | 47° |
| 2026-04-21 03:43 | 34.77735 | -116.55978 | 11643 ft | 151 kts | 47° |
| 2026-04-21 03:43 | 34.78490 | -116.55094 | 11649 ft | 151 kts | 47° |
| 2026-04-21 03:43 | 34.79247 | -116.54211 | 11655 ft | 151 kts | 47° |
| 2026-04-21 03:44 | 34.80004 | -116.53332 | 11661 ft | 151 kts | 47° |
| 2026-04-21 03:44 | 34.80762 | -116.52452 | 11667 ft | 151 kts | 47° |
| 2026-04-21 03:44 | 34.81520 | -116.51569 | 11674 ft | 151 kts | 47° |
| 2026-04-21 03:44 | 34.82278 | -116.50686 | 11680 ft | 151 kts | 47° |
| 2026-04-21 03:45 | 34.83036 | -116.49800 | 11687 ft | 151 kts | 47° |
| 2026-04-21 03:45 | 34.83793 | -116.48913 | 11694 ft | 151 kts | 47° |
| 2026-04-21 03:45 | 34.84550 | -116.48026 | 11698 ft | 151 kts | 47° |
| 2026-04-21 03:45 | 34.85306 | -116.47140 | 11707 ft | 151 kts | 47° |
| 2026-04-21 03:46 | 34.86064 | -116.46252 | 11714 ft | 151 kts | 47° |
| 2026-04-21 03:46 | 34.86822 | -116.45363 | 11715 ft | 151 kts | 47° |
| 2026-04-21 03:46 | 34.87581 | -116.44474 | 11729 ft | 151 kts | 47° |
| 2026-04-21 03:46 | 34.88340 | -116.43585 | 11737 ft | 151 kts | 47° |
| 2026-04-21 03:47 | 34.89099 | -116.42697 | 11744 ft | 151 kts | 47° |
| 2026-04-21 03:47 | 34.89854 | -116.41812 | 11750 ft | 150 kts | 47° |
| 2026-04-21 03:47 | 34.90609 | -116.40928 | 11757 ft | 151 kts | 47° |
| 2026-04-21 03:47 | 34.91364 | -116.40044 | 11763 ft | 151 kts | 47° |
| 2026-04-21 03:48 | 34.92121 | -116.39158 | 11769 ft | 151 kts | 47° |
| 2026-04-21 03:48 | 34.92877 | -116.38273 | 11776 ft | 151 kts | 47° |
| 2026-04-21 03:48 | 34.93634 | -116.37386 | 11783 ft | 151 kts | 47° |
| 2026-04-21 03:48 | 34.94391 | -116.36494 | 11790 ft | 151 kts | 47° |
| 2026-04-21 03:49 | 34.95149 | -116.35608 | 11797 ft | 151 kts | 47° |
| 2026-04-21 03:49 | 34.95901 | -116.34724 | 11802 ft | 150 kts | 47° |
| 2026-04-21 03:49 | 34.96650 | -116.33837 | 11807 ft | 150 kts | 47° |
| 2026-04-21 03:49 | 34.97401 | -116.32950 | 11812 ft | 150 kts | 47° |
| 2026-04-21 03:50 | 34.98144 | -116.32076 | 11818 ft | 151 kts | 47° |
| 2026-04-21 03:50 | 34.98909 | -116.31179 | 11823 ft | 151 kts | 47° |
| 2026-04-21 03:50 | 34.99665 | -116.30294 | 11828 ft | 151 kts | 47° |
| 2026-04-21 03:50 | 35.00410 | -116.29422 | 11833 ft | 151 kts | 47° |
| 2026-04-21 03:51 | 35.01167 | -116.28535 | 11840 ft | 151 kts | 47° |
| 2026-04-21 03:51 | 35.01926 | -116.27646 | 11848 ft | 151 kts | 47° |
| 2026-04-21 03:51 | 35.02686 | -116.26758 | 11854 ft | 151 kts | 47° |
| 2026-04-21 03:51 | 35.03445 | -116.25869 | 11857 ft | 151 kts | 47° |
| 2026-04-21 03:52 | 35.04202 | -116.24979 | 11864 ft | 151 kts | 48° |
| 2026-04-21 03:52 | 35.04958 | -116.24084 | 11869 ft | 151 kts | 48° |
| 2026-04-21 03:52 | 35.05712 | -116.23189 | 11874 ft | 151 kts | 48° |
| 2026-04-21 03:52 | 35.06465 | -116.22293 | 11880 ft | 151 kts | 48° |
| 2026-04-21 03:53 | 35.07218 | -116.21398 | 11884 ft | 151 kts | 48° |
| 2026-04-21 03:53 | 35.07972 | -116.20503 | 11901 ft | 151 kts | 48° |
| 2026-04-21 03:53 | 35.08730 | -116.19607 | 11902 ft | 152 kts | 47° |
| 2026-04-21 03:53 | 35.09491 | -116.18709 | 11906 ft | 152 kts | 47° |
| 2026-04-21 03:54 | 35.10254 | -116.17814 | 11915 ft | 152 kts | 47° |
| 2026-04-21 03:54 | 35.11018 | -116.16917 | 11924 ft | 152 kts | 47° |
| 2026-04-21 03:54 | 35.11783 | -116.16019 | 11934 ft | 152 kts | 47° |
| 2026-04-21 03:54 | 35.12546 | -116.15121 | 11942 ft | 152 kts | 47° |
| 2026-04-21 03:55 | 35.13309 | -116.14220 | 11952 ft | 152 kts | 48° |
| 2026-04-21 03:55 | 35.14069 | -116.13321 | 11959 ft | 152 kts | 48° |
| 2026-04-21 03:55 | 35.14827 | -116.12423 | 11966 ft | 152 kts | 48° |
| 2026-04-21 03:55 | 35.15585 | -116.11524 | 11973 ft | 152 kts | 47° |
| 2026-04-21 03:56 | 35.16342 | -116.10625 | 11979 ft | 151 kts | 48° |
| 2026-04-21 03:56 | 35.17098 | -116.09729 | 11985 ft | 151 kts | 48° |
| 2026-04-21 03:56 | 35.17853 | -116.08837 | 11991 ft | 151 kts | 48° |
| 2026-04-21 03:56 | 35.18610 | -116.07944 | 11997 ft | 151 kts | 48° |
| 2026-04-21 03:57 | 35.19365 | -116.07048 | 12002 ft | 151 kts | 48° |
| 2026-04-21 03:57 | 35.20115 | -116.06148 | 12008 ft | 151 kts | 48° |
| 2026-04-21 03:57 | 35.20864 | -116.05249 | 12014 ft | 151 kts | 46° |
| 2026-04-21 03:57 | 35.21622 | -116.04359 | 12022 ft | 151 kts | 47° |
| 2026-04-21 03:58 | 35.22384 | -116.03471 | 12030 ft | 151 kts | 47° |
| 2026-04-21 03:58 | 35.23147 | -116.02580 | 12037 ft | 152 kts | 47° |
| 2026-04-21 03:58 | 35.23908 | -116.01687 | 12037 ft | 152 kts | 47° |
| 2026-04-21 03:58 | 35.24675 | -116.00779 | 12054 ft | 156 kts | 48° |
| 2026-04-21 03:59 | 35.25462 | -115.99839 | 12077 ft | 160 kts | 48° |
| 2026-04-21 03:59 | 35.26255 | -115.98883 | 12105 ft | 160 kts | 48° |
| 2026-04-21 03:59 | 35.27051 | -115.97922 | 12136 ft | 161 kts | 48° |
| 2026-04-21 04:00 | 35.28661 | -115.95993 | 12201 ft | 162 kts | 47° |
| 2026-04-21 04:00 | 35.29476 | -115.95029 | 12234 ft | 163 kts | 47° |
| 2026-04-21 04:00 | 35.30296 | -115.94066 | 12268 ft | 164 kts | 47° |
| 2026-04-21 04:00 | 35.31119 | -115.93102 | 12298 ft | 164 kts | 47° |
| 2026-04-21 04:01 | 35.31939 | -115.92136 | 12332 ft | 164 kts | 47° |
| 2026-04-21 04:01 | 35.32758 | -115.91166 | 12365 ft | 164 kts | 48° |
| 2026-04-21 04:01 | 35.33571 | -115.90188 | 12394 ft | 164 kts | 48° |
| 2026-04-21 04:01 | 35.34388 | -115.89209 | 12431 ft | 164 kts | 47° |
| 2026-04-21 04:02 | 35.35207 | -115.88236 | 12464 ft | 164 kts | 47° |
| 2026-04-21 04:02 | 35.36027 | -115.87263 | 12496 ft | 164 kts | 47° |
| 2026-04-21 04:02 | 35.36846 | -115.86288 | 12529 ft | 164 kts | 47° |
| 2026-04-21 04:02 | 35.37663 | -115.85312 | 12561 ft | 164 kts | 47° |
| 2026-04-21 04:03 | 35.38479 | -115.84334 | 12593 ft | 164 kts | 48° |
| 2026-04-21 04:03 | 35.39296 | -115.83357 | 12624 ft | 164 kts | 48° |
| 2026-04-21 04:03 | 35.40112 | -115.82380 | 12656 ft | 164 kts | 47° |
| 2026-04-21 04:03 | 35.40930 | -115.81400 | 12692 ft | 164 kts | 47° |
| 2026-04-21 04:04 | 35.41750 | -115.80422 | 12719 ft | 165 kts | 47° |
| 2026-04-21 04:04 | 35.42571 | -115.79444 | 12749 ft | 164 kts | 47° |
| 2026-04-21 04:04 | 35.43391 | -115.78468 | 12782 ft | 164 kts | 47° |
| 2026-04-21 04:04 | 35.44211 | -115.77492 | 12814 ft | 164 kts | 47° |
| 2026-04-21 04:05 | 35.45029 | -115.76516 | 12844 ft | 164 kts | 47° |
| 2026-04-21 04:05 | 35.45845 | -115.75542 | 12874 ft | 164 kts | 47° |
| 2026-04-21 04:05 | 35.46662 | -115.74565 | 12904 ft | 164 kts | 47° |
| 2026-04-21 04:05 | 35.47478 | -115.73589 | 12934 ft | 164 kts | 47° |
| 2026-04-21 04:06 | 35.48297 | -115.72608 | 12968 ft | 165 kts | 48° |
| 2026-04-21 04:06 | 35.49107 | -115.71639 | 12991 ft | 165 kts | 47° |
| 2026-04-21 04:06 | 35.49928 | -115.70658 | 13020 ft | 165 kts | 48° |
| 2026-04-21 04:06 | 35.50748 | -115.69677 | 13052 ft | 165 kts | 48° |
| 2026-04-21 04:07 | 35.51567 | -115.68695 | 13079 ft | 165 kts | 48° |
| 2026-04-21 04:07 | 35.52392 | -115.67726 | 13147 ft | 162 kts | 47° |
| 2026-04-21 04:07 | 35.53203 | -115.66756 | 13174 ft | 163 kts | 48° |
| 2026-04-21 04:07 | 35.54014 | -115.65774 | 13200 ft | 163 kts | 48° |
| 2026-04-21 04:08 | 35.54819 | -115.64839 | 13223 ft | 156 kts | 46° |
| 2026-04-21 04:08 | 35.55588 | -115.63929 | 13178 ft | 149 kts | 49° |
| 2026-04-21 04:08 | 35.56295 | -115.63059 | 13047 ft | 142 kts | 50° |
| 2026-04-21 04:08 | 35.56994 | -115.62176 | 12783 ft | 145 kts | 50° |
| 2026-04-21 04:09 | 35.57695 | -115.61297 | 12536 ft | 144 kts | 50° |
| 2026-04-21 04:09 | 35.58404 | -115.60390 | 12224 ft | 149 kts | 50° |
| 2026-04-21 04:09 | 35.59141 | -115.59461 | 11897 ft | 153 kts | 50° |
| 2026-04-21 04:09 | 35.59886 | -115.58540 | 11718 ft | 146 kts | 48° |
| 2026-04-21 04:10 | 35.60632 | -115.57675 | 11457 ft | 148 kts | 46° |
| 2026-04-21 04:10 | 35.61342 | -115.56883 | 11262 ft | 134 kts | 46° |
| 2026-04-21 04:10 | 35.62011 | -115.56106 | 10982 ft | 130 kts | 49° |
| 2026-04-21 04:10 | 35.62671 | -115.55280 | 10576 ft | 135 kts | 50° |
| 2026-04-21 04:11 | 35.63098 | -115.54739 | 10410 ft | 131 kts | 51° |
| 2026-04-21 04:11 | 35.63940 | -115.53688 | 10038 ft | 127 kts | 50° |
| 2026-04-21 04:11 | 35.64352 | -115.53181 | 9859 ft | 126 kts | 51° |
| 2026-04-21 04:11 | 35.64953 | -115.52407 | 9590 ft | 124 kts | 53° |
| 2026-04-21 04:12 | 35.65536 | -115.51634 | 9338 ft | 121 kts | 52° |
| 2026-04-21 04:12 | 35.66126 | -115.50915 | 9254 ft | 117 kts | 49° |
| 2026-04-21 04:12 | 35.66730 | -115.50261 | 9254 ft | 115 kts | 46° |
| 2026-04-21 04:12 | 35.67340 | -115.49640 | 9251 ft | 113 kts | 45° |
| 2026-04-21 04:13 | 35.67944 | -115.49015 | 9240 ft | 113 kts | 46° |
| 2026-04-21 04:13 | 35.68530 | -115.48373 | 9232 ft | 113 kts | 48° |
| 2026-04-21 04:13 | 35.69097 | -115.47706 | 9228 ft | 113 kts | 50° |
| 2026-04-21 04:13 | 35.69660 | -115.47015 | 9227 ft | 115 kts | 51° |
| 2026-04-21 04:14 | 35.70224 | -115.46316 | 9225 ft | 115 kts | 52° |
| 2026-04-21 04:14 | 35.70861 | -115.45494 | 8815 ft | 148 kts | 51° |
| 2026-04-21 04:14 | 35.71592 | -115.44552 | 8616 ft | 156 kts | 50° |
| 2026-04-21 04:14 | 35.72356 | -115.43635 | 8511 ft | 152 kts | 48° |
| 2026-04-21 04:15 | 35.73114 | -115.42728 | 8302 ft | 148 kts | 49° |
| 2026-04-21 04:15 | 35.73824 | -115.41879 | 7988 ft | 142 kts | 49° |
| 2026-04-21 04:15 | 35.74552 | -115.41017 | 7836 ft | 139 kts | 49° |
| 2026-04-21 04:15 | 35.75232 | -115.40211 | 7851 ft | 135 kts | 49° |
| 2026-04-21 04:16 | 35.75906 | -115.39412 | 7671 ft | 137 kts | 49° |
| 2026-04-21 04:16 | 35.76621 | -115.38543 | 7420 ft | 141 kts | 50° |
| 2026-04-21 04:16 | 35.77288 | -115.37734 | 7313 ft | 136 kts | 50° |
| 2026-04-21 04:16 | 35.77989 | -115.36881 | 7065 ft | 141 kts | 50° |
| 2026-04-21 04:17 | 35.78662 | -115.36071 | 6958 ft | 135 kts | 50° |
| 2026-04-21 04:17 | 35.79351 | -115.35231 | 6720 ft | 139 kts | 50° |
| 2026-04-21 04:17 | 35.80019 | -115.34430 | 6639 ft | 132 kts | 50° |
| 2026-04-21 04:17 | 35.80688 | -115.33615 | 6450 ft | 135 kts | 50° |
| 2026-04-21 04:18 | 35.81337 | -115.32825 | 6367 ft | 132 kts | 50° |
| 2026-04-21 04:18 | 35.81994 | -115.32016 | 6293 ft | 131 kts | 50° |
| 2026-04-21 04:18 | 35.82639 | -115.31230 | 6200 ft | 133 kts | 50° |
| 2026-04-21 04:18 | 35.83295 | -115.30428 | 6118 ft | 131 kts | 49° |
| 2026-04-21 04:19 | 35.83944 | -115.29652 | 6033 ft | 132 kts | 50° |
| 2026-04-21 04:19 | 35.84608 | -115.28860 | 5953 ft | 132 kts | 50° |
| 2026-04-21 04:19 | 35.85256 | -115.28083 | 5876 ft | 130 kts | 48° |
| 2026-04-21 04:19 | 35.85933 | -115.27339 | 5795 ft | 130 kts | 46° |
| 2026-04-21 04:20 | 35.86620 | -115.26614 | 5791 ft | 132 kts | 45° |
| 2026-04-21 04:20 | 35.87261 | -115.25937 | 5823 ft | 123 kts | 46° |
| 2026-04-21 04:20 | 35.87964 | -115.25118 | 5569 ft | 130 kts | 50° |
| 2026-04-21 04:20 | 35.88548 | -115.24398 | 5511 ft | 125 kts | 52° |
| 2026-04-21 04:21 | 35.89180 | -115.23552 | 5279 ft | 128 kts | 52° |
| 2026-04-21 04:21 | 35.89742 | -115.22803 | 5264 ft | 121 kts | 52° |
| 2026-04-21 04:21 | 35.90347 | -115.21992 | 5099 ft | 126 kts | 51° |
| 2026-04-21 04:21 | 35.90926 | -115.21251 | 5042 ft | 122 kts | 50° |
| 2026-04-21 04:22 | 35.91524 | -115.20508 | 4990 ft | 117 kts | 49° |
| 2026-04-21 04:22 | 35.92094 | -115.19828 | 4990 ft | 113 kts | 48° |
| 2026-04-21 04:22 | 35.92657 | -115.19169 | 4996 ft | 111 kts | 48° |
| 2026-04-21 04:22 | 35.93201 | -115.18528 | 4997 ft | 109 kts | 49° |
| 2026-04-21 04:23 | 35.93748 | -115.17868 | 4995 ft | 108 kts | 50° |
| 2026-04-21 04:23 | 35.94270 | -115.17224 | 4994 ft | 107 kts | 50° |
| 2026-04-21 04:23 | 35.94793 | -115.16565 | 4992 ft | 107 kts | 51° |
| 2026-04-21 04:23 | 35.95408 | -115.15955 | 4761 ft | 119 kts | 30° |
| 2026-04-21 04:24 | 35.96231 | -115.15740 | 4538 ft | 125 kts | 3° |
| 2026-04-21 04:24 | 35.97079 | -115.15714 | 4415 ft | 122 kts | 3° |
| 2026-04-21 04:24 | 35.97913 | -115.15661 | 4194 ft | 113 kts | 5° |
| 2026-04-21 04:24 | 35.98650 | -115.15601 | 3969 ft | 104 kts | 6° |
| 2026-04-21 04:25 | 35.99339 | -115.15376 | 3607 ft | 104 kts | 36° |
| 2026-04-21 04:25 | 35.99796 | -115.14717 | 3269 ft | 98 kts | 65° |
| 2026-04-21 04:25 | 35.99945 | -115.13981 | 3082 ft | 85 kts | 108° |
| 2026-04-21 04:25 | 35.99614 | -115.13452 | 2913 ft | 81 kts | 156° |
| 2026-04-21 04:26 | 35.99071 | -115.13430 | 2749 ft | 79 kts | 193° |
| 2026-04-21 04:26 | 35.98520 | -115.13523 | 2532 ft | 79 kts | 180° |
| 2026-04-21 04:26 | 35.97998 | -115.13533 | 2424 ft | 66 kts | 180° |
| 2026-04-21 04:26 | 35.97654 | -115.13538 | 2435 ft | 32 kts | 181° |
| 2026-04-21 04:27 | 35.97497 | -115.13539 | 2440 ft | 14 kts | 184° |
| 2026-04-21 04:27 | 35.97444 | -115.13574 | 2443 ft | 8 kts | 249° |
| 2026-04-21 04:27 | 35.97442 | -115.13615 | 2441 ft | 0 kts | 270° |
| 2026-04-21 04:28 | 35.97442 | -115.13622 | 2441 ft | 3 kts | 270° |
| 2026-04-21 04:28 | 35.97442 | -115.13666 | 2445 ft | 6 kts | 270° |
| 2026-04-21 04:29 | 35.97408 | -115.13693 | 2443 ft | 9 kts | 179° |
| 2026-04-21 04:29 | 35.97364 | -115.13694 | 2446 ft | 7 kts | 180° |
| 2026-04-21 04:29 | 35.97297 | -115.13695 | 2448 ft | 8 kts | 181° |
| 2026-04-21 04:29 | 35.97255 | -115.13696 | 2451 ft | 6 kts | 181° |
| 2026-04-21 04:30 | 35.97213 | -115.13696 | 2451 ft | 7 kts | 180° |
| 2026-04-21 04:30 | 35.97186 | -115.13717 | 2449 ft | 3 kts | 272° |
| 2026-04-21 04:30 | 35.97188 | -115.13731 | 2449 ft | 0 kts | 318° |
| 2026-04-21 04:30 | 35.97190 | -115.13731 | 2449 ft | 0 kts | 0° |
| 2026-04-21 04:32 | 35.97188 | -115.13731 | 2454 ft | 2 kts | 3° |
| 2026-04-21 04:32 | 35.97175 | -115.13731 | 2450 ft | 2 kts | 4° |
| 2026-04-21 04:32 | 35.97173 | -115.13731 | 2450 ft | 0 kts | 3° |